createdAt,value
2018-04-13T00:00:28.250Z,8.70
2018-04-13T00:03:01.539Z,8.70
2018-04-13T00:05:30.156Z,8.60
2018-04-13T00:08:03.301Z,8.60
2018-04-13T00:10:32.296Z,8.50
2018-04-13T00:13:05.603Z,8.50
2018-04-13T00:15:34.602Z,8.50
2018-04-13T00:18:08.207Z,8.50
2018-04-13T00:20:38.643Z,8.50
2018-04-13T00:23:11.616Z,8.50
2018-04-13T00:25:40.197Z,8.50
2018-04-13T00:28:12.968Z,8.50
2018-04-13T00:30:42.300Z,8.50
2018-04-13T00:33:15.211Z,8.50
2018-04-13T00:35:45.664Z,8.50
2018-04-13T00:38:18.629Z,8.40
2018-04-13T00:40:47.979Z,8.50
2018-04-13T00:45:50.215Z,8.50
2018-04-13T00:48:23.451Z,8.50
2018-04-13T00:50:52.847Z,9.30
2018-04-13T00:53:30.339Z,8.30
2018-04-13T00:56:00.204Z,8.20
2018-04-13T00:58:29.848Z,8.10
2018-04-13T01:00:58.626Z,8.00
2018-04-13T01:03:29.539Z,8.00
2018-04-13T01:05:59.600Z,8.00
2018-04-13T01:08:40.828Z,8.10
2018-04-13T01:11:09.773Z,9.90
2018-04-13T01:13:39.132Z,8.20
2018-04-13T01:16:08.582Z,8.20
2018-04-13T01:18:38.202Z,8.20
2018-04-13T01:21:07.297Z,8.10
2018-04-13T01:23:38.321Z,8.00
2018-04-13T01:26:07.946Z,8.00
2018-04-13T01:28:41.136Z,7.90
2018-04-13T01:31:09.723Z,8.00
2018-04-13T01:33:42.999Z,8.20
2018-04-13T01:36:12.371Z,8.10
2018-04-13T01:38:45.163Z,8.10
2018-04-13T01:41:14.333Z,8.00
2018-04-13T01:43:47.644Z,7.90
2018-04-13T01:46:17.367Z,7.90
2018-04-13T01:48:49.712Z,7.80
2018-04-13T01:54:01.262Z,7.90
2018-04-13T01:56:29.856Z,7.80
2018-04-13T01:58:59.110Z,7.80
2018-04-13T02:01:27.700Z,7.70
2018-04-13T02:04:00.283Z,8.10
2018-04-13T02:06:29.267Z,7.50
2018-04-13T02:09:10.533Z,7.10
2018-04-13T02:11:39.540Z,7.40
2018-04-13T02:14:08.140Z,7.30
2018-04-13T02:16:37.049Z,8.10
2018-04-13T02:19:05.912Z,7.40
2018-04-13T02:21:34.374Z,7.40
2018-04-13T02:24:11.492Z,7.40
2018-04-13T02:26:40.640Z,7.40
2018-04-13T02:29:12.624Z,7.10
2018-04-13T02:31:42.238Z,7.10
2018-04-13T02:34:13.680Z,7.10
2018-04-13T02:36:42.111Z,7.00
2018-04-13T02:39:16.290Z,6.90
2018-04-13T02:41:45.048Z,7.00
2018-04-13T02:44:18.520Z,7.00
2018-04-13T02:46:47.434Z,6.90
2018-04-13T02:49:21.413Z,6.80
2018-04-13T02:51:49.921Z,6.80
2018-04-13T02:54:23.737Z,6.70
2018-04-13T02:56:52.543Z,6.70
2018-04-13T02:59:25.267Z,6.80
2018-04-13T03:01:53.736Z,6.90
2018-04-13T03:04:26.891Z,6.90
2018-04-13T03:06:55.360Z,6.90
2018-04-13T03:11:58.815Z,7.00
2018-04-13T03:14:39.719Z,7.00
2018-04-13T03:17:09.667Z,7.00
2018-04-13T03:19:38.123Z,7.00
2018-04-13T03:22:07.741Z,6.90
2018-04-13T03:24:37.619Z,6.90
2018-04-13T03:29:40.099Z,6.90
2018-04-13T03:32:08.844Z,6.90
2018-04-13T03:34:41.947Z,6.80
2018-04-13T03:37:10.422Z,6.80
2018-04-13T03:39:43.705Z,6.80
2018-04-13T03:42:12.236Z,6.70
2018-04-13T03:44:44.991Z,6.70
2018-04-13T03:47:14.573Z,6.70
2018-04-13T03:49:47.888Z,6.80
2018-04-13T03:52:16.371Z,6.80
2018-04-13T03:54:51.460Z,6.80
2018-04-13T03:57:21.076Z,6.70
2018-04-13T04:02:22.642Z,6.70
2018-04-13T04:07:24.803Z,6.40
2018-04-13T04:10:06.483Z,6.30
2018-04-13T04:12:35.875Z,6.20
2018-04-13T04:15:04.439Z,6.20
2018-04-13T04:17:32.923Z,6.20
2018-04-13T04:21:18.877Z,6.20
2018-04-13T04:28:39.160Z,6.30
2018-04-13T04:31:20.081Z,6.30
2018-04-13T04:33:49.205Z,6.30
2018-04-13T04:36:18.457Z,6.40
2018-04-13T04:38:47.680Z,6.40
2018-04-13T04:41:17.674Z,6.40
2018-04-13T04:43:47.270Z,6.40
2018-04-13T04:46:18.768Z,6.30
2018-04-13T04:51:21.448Z,6.50
2018-04-13T04:53:50.720Z,6.40
2018-04-13T04:56:21.969Z,6.50
2018-04-13T05:01:32.861Z,7.60
2018-04-13T05:04:02.517Z,6.60
2018-04-13T05:06:32.524Z,6.60
2018-04-13T05:09:01.629Z,6.60
2018-04-13T05:11:30.139Z,6.60
2018-04-13T05:13:59.747Z,6.70
2018-04-13T05:21:33.005Z,7.00
2018-04-13T05:26:43.873Z,7.10
2018-04-13T05:29:13.412Z,7.30
2018-04-13T05:36:42.253Z,7.60
2018-04-13T05:41:42.036Z,7.40
2018-04-13T05:44:11.548Z,7.40
2018-04-13T05:49:13.167Z,7.60
2018-04-13T05:51:47.033Z,7.70
2018-04-13T05:54:16.269Z,7.90
2018-04-13T05:56:49.223Z,8.10
2018-04-13T05:59:19.535Z,8.40
2018-04-13T06:01:52.367Z,8.50
2018-04-13T06:04:20.849Z,9.20
2018-04-13T06:06:54.263Z,9.10
2018-04-13T06:09:22.987Z,8.00
2018-04-13T06:11:56.544Z,9.10
2018-04-13T06:14:25.026Z,9.20
2018-04-13T06:16:58.872Z,9.40
2018-04-13T06:19:27.743Z,9.50
2018-04-13T06:22:00.911Z,9.60
2018-04-13T06:24:29.435Z,9.60
2018-04-13T06:27:02.762Z,9.50
2018-04-13T06:29:33.024Z,9.70
2018-04-13T06:32:08.444Z,9.80
2018-04-13T06:34:38.107Z,10.00
2018-04-13T06:39:40.060Z,10.40
2018-04-13T06:42:13.582Z,10.90
2018-04-13T06:44:43.275Z,11.30
2018-04-13T06:47:16.916Z,11.90
2018-04-13T06:49:46.469Z,12.40
2018-04-13T06:52:18.667Z,12.30
2018-04-13T06:54:47.571Z,11.90
2018-04-13T06:57:20.245Z,11.50
2018-04-13T06:59:48.805Z,11.50
2018-04-13T07:02:30.832Z,11.70
2018-04-13T07:04:59.545Z,11.80
2018-04-13T07:07:28.407Z,11.80
2018-04-13T07:12:28.211Z,12.00
2018-04-13T07:14:57.907Z,12.20
2018-04-13T07:17:29.728Z,12.20
2018-04-13T07:19:58.487Z,12.40
2018-04-13T07:22:30.991Z,12.70
2018-04-13T07:24:59.496Z,12.60
2018-04-13T07:27:40.982Z,12.70
2018-04-13T07:30:09.453Z,13.00
2018-04-13T07:32:38.221Z,13.60
2018-04-13T07:35:06.705Z,14.00
2018-04-13T07:37:38.236Z,14.30
2018-04-13T07:42:39.965Z,15.10
2018-04-13T07:45:09.304Z,15.30
2018-04-13T07:47:51.019Z,15.50
2018-04-13T07:50:20.048Z,16.00
2018-04-13T07:52:48.515Z,15.20
2018-04-13T07:55:17.848Z,15.10
2018-04-13T07:57:47.845Z,15.30
2018-04-13T08:00:18.347Z,15.30
2018-04-13T08:02:49.536Z,16.20
2018-04-13T08:05:18.427Z,16.80
2018-04-13T08:07:51.927Z,17.00
2018-04-13T08:10:21.167Z,17.50
2018-04-13T08:12:54.483Z,17.50
2018-04-13T08:15:23.008Z,17.30
2018-04-13T08:17:56.080Z,16.70
2018-04-13T08:20:24.579Z,16.20
2018-04-13T08:22:58.154Z,15.70
2018-04-13T08:25:26.699Z,15.70
2018-04-13T08:28:01.673Z,15.70
2018-04-13T08:30:30.187Z,15.30
2018-04-13T08:43:38.292Z,15.50
2018-04-13T08:46:21.822Z,15.20
2018-04-13T08:48:50.817Z,14.80
2018-04-13T08:51:20.397Z,14.90
2018-04-13T08:53:49.653Z,14.80
2018-04-13T08:56:19.234Z,15.00
2018-04-13T09:01:21.724Z,14.90
2018-04-13T09:03:50.512Z,14.80
2018-04-13T09:08:50.105Z,14.50
2018-04-13T09:11:23.019Z,14.50
2018-04-13T09:13:51.520Z,14.70
2018-04-13T09:16:24.801Z,14.50
2018-04-13T09:18:53.673Z,14.40
2018-04-13T09:21:35.916Z,14.20
2018-04-13T09:24:04.682Z,14.30
2018-04-13T09:26:33.579Z,14.30
2018-04-13T09:29:02.820Z,14.30
2018-04-13T09:34:01.224Z,14.30
2018-04-13T09:36:35.512Z,14.30
2018-04-13T09:39:04.503Z,14.40
2018-04-13T09:46:39.867Z,14.50
2018-04-13T09:49:08.840Z,14.40
2018-04-13T09:51:50.515Z,14.50
2018-04-13T09:54:20.450Z,14.50
2018-04-13T09:56:48.903Z,14.60
2018-04-13T09:59:18.597Z,14.60
2018-04-13T10:01:49.063Z,14.70
2018-04-13T10:04:18.943Z,14.80
2018-04-13T10:06:51.221Z,14.70
2018-04-13T10:09:20.348Z,14.70
2018-04-13T10:11:52.670Z,16.10
2018-04-13T10:14:21.135Z,14.60
2018-04-13T10:16:57.179Z,14.60
2018-04-13T10:19:26.795Z,14.60
2018-04-13T10:21:57.520Z,14.60
2018-04-13T10:24:26.740Z,14.70
2018-04-13T10:27:08.635Z,14.60
2018-04-13T10:29:38.878Z,14.40
2018-04-13T10:32:07.749Z,14.20
2018-04-13T10:39:36.307Z,14.20
2018-04-13T10:42:17.320Z,14.20
2018-04-13T10:47:15.567Z,14.30
2018-04-13T10:49:44.266Z,14.40
2018-04-13T10:52:13.829Z,14.40
2018-04-13T10:54:43.640Z,14.50
2018-04-13T10:57:16.907Z,14.40
2018-04-13T11:02:18.532Z,14.80
2018-04-13T11:07:20.625Z,14.50
2018-04-13T11:09:49.088Z,14.60
2018-04-13T11:12:22.405Z,14.70
2018-04-13T11:17:23.890Z,14.80
2018-04-13T11:19:53.503Z,14.60
2018-04-13T11:22:27.376Z,15.20
2018-04-13T11:24:55.908Z,14.70
2018-04-13T11:27:29.577Z,14.10
2018-04-13T11:29:58.585Z,14.50
2018-04-13T11:32:31.700Z,14.60
2018-04-13T11:35:00.945Z,14.60
2018-04-13T11:37:34.202Z,14.60
2018-04-13T11:40:03.105Z,14.60
2018-04-13T11:42:44.091Z,14.60
2018-04-13T11:45:12.987Z,14.30
2018-04-13T11:47:41.579Z,14.40
2018-04-13T11:50:10.145Z,15.00
2018-04-13T11:52:41.212Z,14.50
2018-04-13T11:55:09.823Z,14.60
2018-04-13T11:57:43.229Z,14.60
2018-04-13T12:00:13.195Z,14.60
2018-04-13T12:02:46.331Z,12.50
2018-04-13T12:05:17.315Z,14.70
2018-04-13T12:07:49.425Z,14.70
2018-04-13T12:10:17.972Z,14.60
2018-04-13T12:12:59.316Z,14.60
2018-04-13T12:15:28.176Z,14.70
2018-04-13T12:17:58.436Z,14.60
2018-04-13T12:20:28.061Z,14.70
2018-04-13T12:22:56.563Z,14.70
2018-04-13T12:25:25.480Z,14.70
2018-04-13T12:27:58.401Z,14.80
2018-04-13T12:30:26.974Z,14.80
2018-04-13T12:32:59.659Z,14.80
2018-04-13T12:35:28.886Z,15.00
2018-04-13T12:38:02.718Z,15.10
2018-04-13T12:40:33.154Z,14.20
2018-04-13T12:43:06.432Z,15.30
2018-04-13T12:45:38.152Z,15.40
2018-04-13T12:48:10.055Z,15.60
2018-04-13T12:50:38.512Z,15.80
2018-04-13T12:55:41.839Z,15.90
2018-04-13T12:58:23.569Z,15.90
2018-04-13T13:00:53.472Z,16.00
2018-04-13T13:03:23.095Z,16.10
2018-04-13T13:05:51.971Z,16.30
2018-04-13T13:08:21.516Z,16.10
2018-04-13T13:10:50.009Z,16.00
2018-04-13T13:13:20.313Z,16.80
2018-04-13T13:15:50.224Z,16.00
2018-04-13T13:18:23.188Z,16.00
2018-04-13T13:20:53.231Z,15.90
2018-04-13T13:23:26.285Z,15.90
2018-04-13T13:25:55.631Z,16.00
2018-04-13T13:28:26.882Z,15.90
2018-04-13T13:30:56.543Z,16.00
2018-04-13T13:33:28.950Z,15.90
2018-04-13T13:38:39.508Z,15.90
2018-04-13T13:41:09.873Z,15.90
2018-04-13T13:43:38.388Z,16.00
2018-04-13T13:48:36.650Z,16.00
2018-04-13T13:51:05.155Z,16.00
2018-04-13T13:53:38.000Z,16.10
2018-04-13T13:56:08.255Z,16.30
2018-04-13T13:58:41.394Z,16.30
2018-04-13T14:01:11.024Z,16.30
2018-04-13T14:03:42.892Z,16.20
2018-04-13T14:06:11.428Z,16.20
2018-04-13T14:08:44.104Z,16.40
2018-04-13T14:11:14.352Z,16.30
2018-04-13T14:13:56.308Z,16.40
2018-04-13T14:16:25.223Z,16.50
2018-04-13T14:18:54.088Z,16.40
2018-04-13T14:21:24.099Z,16.40
2018-04-13T14:23:53.395Z,16.40
2018-04-13T14:28:55.324Z,15.30
2018-04-13T14:31:23.852Z,16.20
2018-04-13T14:33:57.944Z,16.40
2018-04-13T14:36:26.741Z,16.20
2018-04-13T14:39:00.627Z,16.20
2018-04-13T14:41:29.099Z,16.20
2018-04-13T14:44:11.235Z,16.20
2018-04-13T14:46:39.724Z,16.20
2018-04-13T14:49:08.484Z,16.10
2018-04-13T14:51:38.087Z,16.20
2018-04-13T14:56:37.135Z,16.10
2018-04-13T14:59:13.528Z,16.10
2018-04-13T15:01:43.179Z,16.20
2018-04-13T15:04:15.132Z,15.90
2018-04-13T15:06:45.208Z,16.00
2018-04-13T15:09:15.963Z,16.10
2018-04-13T15:11:44.506Z,16.00
2018-04-13T15:14:26.124Z,16.10
2018-04-13T15:16:55.377Z,16.10
2018-04-13T15:19:25.111Z,15.90
2018-04-13T15:21:54.331Z,16.00
2018-04-13T15:24:23.220Z,15.90
2018-04-13T15:26:53.652Z,15.90
2018-04-13T15:29:23.967Z,15.80
2018-04-13T15:31:53.221Z,15.70
2018-04-13T15:34:26.287Z,15.60
2018-04-13T15:36:54.827Z,16.60
2018-04-13T15:39:28.582Z,15.60
2018-04-13T15:44:30.975Z,15.70
2018-04-13T15:46:59.447Z,15.60
2018-04-13T15:49:33.347Z,15.40
2018-04-13T15:52:03.351Z,15.40
2018-04-13T15:54:34.941Z,15.30
2018-04-13T15:57:05.334Z,15.20
2018-04-13T15:59:36.936Z,15.20
2018-04-13T16:04:39.724Z,15.20
2018-04-13T16:07:08.217Z,15.20
2018-04-13T16:09:50.738Z,15.20
2018-04-13T16:12:20.064Z,15.20
2018-04-13T16:14:50.172Z,15.10
2018-04-13T16:17:19.835Z,15.10
2018-04-13T16:19:48.947Z,15.00
2018-04-13T16:22:18.560Z,15.00
2018-04-13T16:24:50.646Z,14.90
2018-04-13T16:27:20.291Z,14.90
2018-04-13T16:29:51.609Z,17.00
2018-04-13T16:32:20.915Z,14.80
2018-04-13T16:34:55.368Z,14.70
2018-04-13T16:37:23.907Z,14.70
2018-04-13T16:39:56.923Z,14.60
2018-04-13T16:42:26.048Z,14.60
2018-04-13T16:44:59.124Z,14.60
2018-04-13T16:47:28.379Z,14.60
2018-04-13T16:50:01.736Z,14.60
2018-04-13T16:52:30.226Z,14.60
2018-04-13T16:55:05.024Z,14.20
2018-04-13T16:57:34.604Z,14.60
2018-04-13T17:00:07.370Z,14.80
2018-04-13T17:02:36.612Z,14.80
2018-04-13T17:05:17.987Z,14.80
2018-04-13T17:07:47.035Z,14.70
2018-04-13T17:10:16.581Z,14.80
2018-04-13T17:12:45.436Z,15.70
2018-04-13T17:15:15.110Z,14.60
2018-04-13T17:17:44.671Z,14.60
2018-04-13T17:20:18.049Z,14.50
2018-04-13T17:22:47.243Z,15.40
2018-04-13T17:27:58.457Z,14.30
2018-04-13T17:30:26.924Z,14.30
2018-04-13T17:32:56.232Z,14.20
2018-04-13T17:35:25.331Z,14.20
2018-04-13T17:37:54.927Z,14.30
2018-04-13T17:40:28.400Z,14.20
2018-04-13T17:42:57.180Z,14.10
2018-04-13T17:45:29.685Z,14.10
2018-04-13T17:47:58.968Z,14.10
2018-04-13T17:50:32.180Z,14.00
2018-04-13T17:53:01.742Z,14.00
2018-04-13T17:55:34.443Z,14.00
2018-04-13T17:58:03.300Z,14.00
2018-04-13T18:00:36.146Z,14.00
2018-04-13T18:03:04.602Z,14.00
2018-04-13T18:05:37.715Z,14.00
2018-04-13T18:08:06.625Z,14.00
2018-04-13T18:10:39.335Z,14.00
2018-04-13T18:13:08.472Z,13.90
2018-04-13T18:20:46.913Z,13.80
2018-04-13T18:23:16.617Z,14.20
2018-04-13T18:25:48.125Z,13.80
2018-04-13T18:30:50.877Z,13.70
2018-04-13T18:33:20.412Z,13.70
2018-04-13T18:36:02.064Z,13.70
2018-04-13T18:38:31.724Z,13.70
2018-04-13T18:41:01.036Z,13.70
2018-04-13T18:43:29.905Z,13.70
2018-04-13T18:45:58.751Z,13.70
2018-04-13T18:53:31.013Z,13.70
2018-04-13T18:56:04.125Z,13.70
2018-04-13T18:58:33.273Z,13.70
2018-04-13T19:01:06.796Z,13.70
2018-04-13T19:03:36.505Z,13.70
2018-04-13T19:06:18.652Z,14.80
2018-04-13T19:11:16.888Z,13.30
2018-04-13T19:13:45.763Z,13.40
2018-04-13T19:16:15.010Z,13.40
2018-04-13T19:18:43.499Z,13.40
2018-04-13T19:21:24.451Z,13.40
2018-04-13T19:23:53.334Z,13.30
2018-04-13T19:26:23.581Z,13.20
2018-04-13T19:28:53.179Z,13.20
2018-04-13T19:31:23.168Z,13.10
2018-04-13T19:33:51.950Z,13.10
2018-04-13T19:36:23.681Z,13.00
2018-04-13T19:38:53.291Z,13.00
2018-04-13T19:41:24.478Z,13.00
2018-04-13T19:43:53.395Z,12.90
2018-04-13T19:46:26.959Z,13.20
2018-04-13T19:48:55.704Z,12.80
2018-04-13T19:51:28.554Z,12.70
2018-04-13T19:53:57.035Z,12.70
2018-04-13T19:56:30.575Z,12.70
2018-04-13T19:59:00.561Z,12.70
2018-04-13T20:01:42.115Z,12.70
2018-04-13T20:04:10.895Z,12.70
2018-04-13T20:06:40.595Z,12.70
2018-04-13T20:09:09.128Z,12.70
2018-04-13T20:11:38.609Z,12.60
2018-04-13T20:14:07.115Z,12.60
2018-04-13T20:16:48.478Z,12.60
2018-04-13T20:19:18.800Z,12.60
2018-04-13T20:21:48.872Z,12.50
2018-04-13T20:24:18.530Z,12.40
2018-04-13T20:29:16.847Z,12.30
2018-04-13T20:31:48.120Z,13.60
2018-04-13T20:39:19.258Z,12.30
2018-04-13T20:41:52.256Z,12.40
2018-04-13T20:44:20.725Z,12.30
2018-04-13T20:46:54.187Z,12.20
2018-04-13T20:49:23.721Z,12.30
2018-04-13T20:52:06.303Z,12.20
2018-04-13T20:54:35.881Z,12.20
2018-04-13T20:57:04.457Z,12.00
2018-04-13T21:02:04.066Z,11.90
2018-04-13T21:07:05.292Z,11.80
2018-04-13T21:09:33.801Z,11.70
2018-04-13T21:12:16.624Z,11.70
2018-04-13T21:14:46.304Z,11.30
2018-04-13T21:17:17.435Z,11.50
2018-04-13T21:22:16.085Z,11.50
2018-04-13T21:24:45.409Z,11.50
2018-04-13T21:27:15.893Z,11.40
2018-04-13T21:29:45.877Z,11.40
2018-04-13T21:32:17.601Z,11.40
2018-04-13T21:34:47.124Z,11.40
2018-04-13T21:37:19.895Z,11.30
2018-04-13T21:39:49.201Z,11.20
2018-04-13T21:42:22.616Z,11.20
2018-04-13T21:44:52.141Z,11.20
2018-04-13T21:47:23.419Z,11.30
2018-04-13T21:52:34.347Z,11.40
2018-04-13T21:55:03.568Z,11.40
2018-04-13T21:57:32.132Z,11.40
2018-04-13T22:00:00.702Z,11.50
2018-04-13T22:02:29.751Z,11.40
2018-04-13T22:04:58.804Z,11.40
2018-04-13T22:07:32.064Z,11.30
2018-04-13T22:10:03.740Z,11.30
2018-04-13T22:15:09.040Z,11.40
2018-04-13T22:17:38.272Z,11.50
2018-04-13T22:20:08.320Z,11.50
2018-04-13T22:22:38.488Z,11.50
2018-04-13T22:25:07.072Z,11.50
2018-04-13T22:27:48.381Z,11.60
2018-04-13T22:30:17.314Z,11.60
2018-04-13T22:35:16.133Z,11.60
2018-04-13T22:37:46.046Z,12.10
2018-04-13T22:40:14.576Z,11.60
2018-04-13T22:42:47.452Z,11.60
2018-04-13T22:45:17.169Z,11.60
2018-04-13T22:47:50.894Z,11.60
2018-04-13T22:50:19.419Z,11.60
2018-04-13T22:53:01.870Z,11.60
2018-04-13T22:55:30.615Z,11.50
2018-04-13T22:57:59.112Z,11.60
2018-04-13T23:00:28.381Z,11.50
2018-04-13T23:02:58.352Z,11.50
2018-04-13T23:05:26.856Z,11.40
2018-04-13T23:08:03.152Z,11.40
2018-04-13T23:10:31.671Z,11.40
2018-04-13T23:13:02.902Z,10.80
2018-04-13T23:18:13.715Z,11.20
2018-04-13T23:20:42.613Z,11.20
2018-04-13T23:23:11.909Z,11.10
2018-04-13T23:25:41.896Z,11.10
2018-04-13T23:28:12.656Z,11.00
2018-04-13T23:30:41.545Z,11.00
2018-04-13T23:33:22.712Z,11.00
2018-04-13T23:35:51.868Z,10.90
2018-04-13T23:38:21.119Z,10.90
2018-04-13T23:40:50.025Z,10.80
2018-04-13T23:45:49.338Z,10.80
2018-04-13T23:48:20.271Z,10.70
2018-04-13T23:50:50.009Z,10.70
2018-04-13T23:53:31.279Z,10.70
2018-04-13T23:56:00.817Z,10.60
2018-04-13T23:58:29.347Z,10.60
